sensor_id;sensor_type;location;lat;lon;timestamp;temperature;humidity
20246;DHT22;10281;54.406;18.556;2022-10-31T00:01:10;8.10;99.90
20246;DHT22;10281;54.406;18.556;2022-10-31T00:03:37;8.10;99.90
20246;DHT22;10281;54.406;18.556;2022-10-31T00:06:04;8.10;99.90
20246;DHT22;10281;54.406;18.556;2022-10-31T00:08:30;8.10;99.90
20246;DHT22;10281;54.406;18.556;2022-10-31T00:10:57;8.10;99.90
20246;DHT22;10281;54.406;18.556;2022-10-31T00:13:23;8.10;99.90
20246;DHT22;10281;54.406;18.556;2022-10-31T00:15:50;8.00;99.90
20246;DHT22;10281;54.406;18.556;2022-10-31T00:18:17;8.00;99.90
20246;DHT22;10281;54.406;18.556;2022-10-31T00:20:43;8.00;99.90
20246;DHT22;10281;54.406;18.556;2022-10-31T00:23:11;8.00;99.90
20246;DHT22;10281;54.406;18.556;2022-10-31T00:25:38;8.00;99.90
20246;DHT22;10281;54.406;18.556;2022-10-31T00:28:07;8.00;99.90
20246;DHT22;10281;54.406;18.556;2022-10-31T00:30:34;8.00;99.90
20246;DHT22;10281;54.406;18.556;2022-10-31T00:33:03;8.00;99.90
20246;DHT22;10281;54.406;18.556;2022-10-31T00:35:30;8.00;99.90
20246;DHT22;10281;54.406;18.556;2022-10-31T00:37:57;7.90;99.90
20246;DHT22;10281;54.406;18.556;2022-10-31T00:40:23;7.90;99.90
20246;DHT22;10281;54.406;18.556;2022-10-31T00:42:51;7.90;99.90
20246;DHT22;10281;54.406;18.556;2022-10-31T00:45:17;7.90;99.90
20246;DHT22;10281;54.406;18.556;2022-10-31T00:47:44;7.90;99.90
20246;DHT22;10281;54.406;18.556;2022-10-31T00:50:11;7.90;99.90
20246;DHT22;10281;54.406;18.556;2022-10-31T00:52:37;7.80;99.90
20246;DHT22;10281;54.406;18.556;2022-10-31T00:55:04;7.70;99.90
20246;DHT22;10281;54.406;18.556;2022-10-31T00:57:31;7.70;99.90
20246;DHT22;10281;54.406;18.556;2022-10-31T00:59:58;7.70;99.90
20246;DHT22;10281;54.406;18.556;2022-10-31T01:02:25;7.70;99.90
20246;DHT22;10281;54.406;18.556;2022-10-31T01:04:51;7.70;99.90
20246;DHT22;10281;54.406;18.556;2022-10-31T01:07:18;7.70;99.90
20246;DHT22;10281;54.406;18.556;2022-10-31T01:09:44;7.70;99.90
20246;DHT22;10281;54.406;18.556;2022-10-31T01:12:11;7.70;99.90
20246;DHT22;10281;54.406;18.556;2022-10-31T01:14:38;7.80;99.90
20246;DHT22;10281;54.406;18.556;2022-10-31T01:17:04;7.80;99.90
20246;DHT22;10281;54.406;18.556;2022-10-31T01:19:32;7.80;99.90
20246;DHT22;10281;54.406;18.556;2022-10-31T01:21:58;7.80;99.90
20246;DHT22;10281;54.406;18.556;2022-10-31T01:24:25;7.90;99.90
20246;DHT22;10281;54.406;18.556;2022-10-31T01:26:51;8.00;99.90
20246;DHT22;10281;54.406;18.556;2022-10-31T01:29:18;8.00;99.90
20246;DHT22;10281;54.406;18.556;2022-10-31T01:31:44;8.10;99.90
20246;DHT22;10281;54.406;18.556;2022-10-31T01:34:15;8.20;99.90
20246;DHT22;10281;54.406;18.556;2022-10-31T01:36:43;8.30;99.90
20246;DHT22;10281;54.406;18.556;2022-10-31T01:39:14;8.30;99.90
20246;DHT22;10281;54.406;18.556;2022-10-31T01:41:44;8.40;99.90
20246;DHT22;10281;54.406;18.556;2022-10-31T01:47:16;8.50;99.90
20246;DHT22;10281;54.406;18.556;2022-10-31T01:49:46;8.60;99.90
20246;DHT22;10281;54.406;18.556;2022-10-31T01:52:20;8.60;99.90
20246;DHT22;10281;54.406;18.556;2022-10-31T01:54:53;8.60;99.90
20246;DHT22;10281;54.406;18.556;2022-10-31T01:57:20;8.70;99.90
20246;DHT22;10281;54.406;18.556;2022-10-31T01:59:50;8.70;99.90
20246;DHT22;10281;54.406;18.556;2022-10-31T02:02:18;8.80;99.90
20246;DHT22;10281;54.406;18.556;2022-10-31T02:04:46;8.80;99.90
20246;DHT22;10281;54.406;18.556;2022-10-31T02:07:18;8.90;99.90
20246;DHT22;10281;54.406;18.556;2022-10-31T02:09:47;8.80;99.90
20246;DHT22;10281;54.406;18.556;2022-10-31T02:12:15;8.90;99.90
20246;DHT22;10281;54.406;18.556;2022-10-31T02:14:42;8.90;99.90
20246;DHT22;10281;54.406;18.556;2022-10-31T02:17:09;8.90;99.90
20246;DHT22;10281;54.406;18.556;2022-10-31T02:22:30;9.10;99.90
20246;DHT22;10281;54.406;18.556;2022-10-31T02:28:01;9.30;99.90
20246;DHT22;10281;54.406;18.556;2022-10-31T02:31:02;9.40;99.90
20246;DHT22;10281;54.406;18.556;2022-10-31T02:33:35;9.40;99.90
20246;DHT22;10281;54.406;18.556;2022-10-31T02:36:14;9.50;99.90
20246;DHT22;10281;54.406;18.556;2022-10-31T02:38:48;9.50;99.90
20246;DHT22;10281;54.406;18.556;2022-10-31T02:41:26;9.60;99.90
20246;DHT22;10281;54.406;18.556;2022-10-31T02:44:00;9.60;99.90
20246;DHT22;10281;54.406;18.556;2022-10-31T02:46:32;9.60;99.90
20246;DHT22;10281;54.406;18.556;2022-10-31T02:49:00;9.70;99.90
20246;DHT22;10281;54.406;18.556;2022-10-31T02:51:28;9.70;99.90
20246;DHT22;10281;54.406;18.556;2022-10-31T02:53:54;9.70;99.90
20246;DHT22;10281;54.406;18.556;2022-10-31T02:56:21;9.70;99.90
20246;DHT22;10281;54.406;18.556;2022-10-31T02:58:53;9.70;99.90
20246;DHT22;10281;54.406;18.556;2022-10-31T03:01:47;9.80;99.90
20246;DHT22;10281;54.406;18.556;2022-10-31T03:04:23;9.90;99.90
20246;DHT22;10281;54.406;18.556;2022-10-31T03:06:56;9.90;99.90
20246;DHT22;10281;54.406;18.556;2022-10-31T03:09:32;9.90;99.90
20246;DHT22;10281;54.406;18.556;2022-10-31T03:14:43;10.00;99.90
20246;DHT22;10281;54.406;18.556;2022-10-31T03:17:17;10.00;99.90
20246;DHT22;10281;54.406;18.556;2022-10-31T03:19:45;10.00;99.90
20246;DHT22;10281;54.406;18.556;2022-10-31T03:22:20;10.00;99.90
20246;DHT22;10281;54.406;18.556;2022-10-31T03:24:48;10.10;99.90
20246;DHT22;10281;54.406;18.556;2022-10-31T03:27:18;10.10;99.90
20246;DHT22;10281;54.406;18.556;2022-10-31T03:29:47;10.10;99.90
20246;DHT22;10281;54.406;18.556;2022-10-31T03:32:23;10.10;99.90
20246;DHT22;10281;54.406;18.556;2022-10-31T03:34:53;10.20;99.90
20246;DHT22;10281;54.406;18.556;2022-10-31T03:37:23;10.20;99.90
20246;DHT22;10281;54.406;18.556;2022-10-31T03:39:51;10.20;99.90
20246;DHT22;10281;54.406;18.556;2022-10-31T03:42:21;10.30;99.90
20246;DHT22;10281;54.406;18.556;2022-10-31T03:44:58;10.30;99.90
20246;DHT22;10281;54.406;18.556;2022-10-31T03:47:24;10.30;99.90
20246;DHT22;10281;54.406;18.556;2022-10-31T03:49:51;10.30;99.90
20246;DHT22;10281;54.406;18.556;2022-10-31T03:52:25;10.30;99.90
20246;DHT22;10281;54.406;18.556;2022-10-31T03:54:58;10.40;99.90
20246;DHT22;10281;54.406;18.556;2022-10-31T03:57:29;10.40;99.90
20246;DHT22;10281;54.406;18.556;2022-10-31T04:00:04;10.40;99.90
20246;DHT22;10281;54.406;18.556;2022-10-31T04:02:34;10.40;99.90
20246;DHT22;10281;54.406;18.556;2022-10-31T04:05:02;10.40;99.90
20246;DHT22;10281;54.406;18.556;2022-10-31T04:07:32;10.40;99.90
20246;DHT22;10281;54.406;18.556;2022-10-31T04:10:00;10.50;99.90
20246;DHT22;10281;54.406;18.556;2022-10-31T04:12:30;10.50;99.90
20246;DHT22;10281;54.406;18.556;2022-10-31T04:14:57;10.50;99.90
20246;DHT22;10281;54.406;18.556;2022-10-31T04:17:27;10.50;99.90
20246;DHT22;10281;54.406;18.556;2022-10-31T04:19:59;10.50;99.90
20246;DHT22;10281;54.406;18.556;2022-10-31T04:22:26;10.60;99.90
20246;DHT22;10281;54.406;18.556;2022-10-31T04:24:53;10.60;99.90
20246;DHT22;10281;54.406;18.556;2022-10-31T04:27:20;10.60;99.90
20246;DHT22;10281;54.406;18.556;2022-10-31T04:29:47;10.60;99.90
20246;DHT22;10281;54.406;18.556;2022-10-31T04:32:13;10.60;99.90
20246;DHT22;10281;54.406;18.556;2022-10-31T04:34:40;10.60;99.90
20246;DHT22;10281;54.406;18.556;2022-10-31T04:37:07;10.60;99.90
20246;DHT22;10281;54.406;18.556;2022-10-31T04:39:33;10.60;99.90
20246;DHT22;10281;54.406;18.556;2022-10-31T04:42:00;10.70;99.90
20246;DHT22;10281;54.406;18.556;2022-10-31T04:44:26;10.70;99.90
20246;DHT22;10281;54.406;18.556;2022-10-31T04:46:53;10.70;99.90
20246;DHT22;10281;54.406;18.556;2022-10-31T04:49:20;10.70;99.90
20246;DHT22;10281;54.406;18.556;2022-10-31T04:51:46;10.70;99.90
20246;DHT22;10281;54.406;18.556;2022-10-31T04:54:13;10.70;99.90
20246;DHT22;10281;54.406;18.556;2022-10-31T04:56:41;10.70;99.90
20246;DHT22;10281;54.406;18.556;2022-10-31T04:59:07;10.70;99.90
20246;DHT22;10281;54.406;18.556;2022-10-31T05:01:34;10.80;99.90
20246;DHT22;10281;54.406;18.556;2022-10-31T05:04:00;10.80;99.90
20246;DHT22;10281;54.406;18.556;2022-10-31T05:06:27;10.80;99.90
20246;DHT22;10281;54.406;18.556;2022-10-31T05:08:54;10.80;99.90
20246;DHT22;10281;54.406;18.556;2022-10-31T05:11:20;10.80;99.90
20246;DHT22;10281;54.406;18.556;2022-10-31T05:13:47;10.90;99.90
20246;DHT22;10281;54.406;18.556;2022-10-31T05:16:14;10.90;99.90
20246;DHT22;10281;54.406;18.556;2022-10-31T05:18:40;10.90;99.90
20246;DHT22;10281;54.406;18.556;2022-10-31T05:21:08;10.90;99.90
20246;DHT22;10281;54.406;18.556;2022-10-31T05:23:34;10.90;99.90
20246;DHT22;10281;54.406;18.556;2022-10-31T05:26:01;11.00;99.90
20246;DHT22;10281;54.406;18.556;2022-10-31T05:28:27;11.00;99.90
20246;DHT22;10281;54.406;18.556;2022-10-31T05:30:54;11.00;99.90
20246;DHT22;10281;54.406;18.556;2022-10-31T05:33:20;11.10;99.90
20246;DHT22;10281;54.406;18.556;2022-10-31T05:35:48;11.10;99.90
20246;DHT22;10281;54.406;18.556;2022-10-31T05:38:14;11.10;99.90
20246;DHT22;10281;54.406;18.556;2022-10-31T05:40:41;11.10;99.90
20246;DHT22;10281;54.406;18.556;2022-10-31T05:43:08;11.20;99.90
20246;DHT22;10281;54.406;18.556;2022-10-31T05:45:34;11.20;99.90
20246;DHT22;10281;54.406;18.556;2022-10-31T05:48:01;11.20;99.90
20246;DHT22;10281;54.406;18.556;2022-10-31T05:50:29;11.20;99.90
20246;DHT22;10281;54.406;18.556;2022-10-31T05:52:59;11.30;99.90
20246;DHT22;10281;54.406;18.556;2022-10-31T05:55:26;11.30;99.90
20246;DHT22;10281;54.406;18.556;2022-10-31T05:57:54;11.30;99.90
20246;DHT22;10281;54.406;18.556;2022-10-31T06:00:22;11.30;99.90
20246;DHT22;10281;54.406;18.556;2022-10-31T06:02:49;11.40;99.90
20246;DHT22;10281;54.406;18.556;2022-10-31T06:05:17;11.40;99.90
20246;DHT22;10281;54.406;18.556;2022-10-31T06:07:44;11.50;99.90
20246;DHT22;10281;54.406;18.556;2022-10-31T06:10:11;11.50;99.90
20246;DHT22;10281;54.406;18.556;2022-10-31T06:12:37;11.50;99.90
20246;DHT22;10281;54.406;18.556;2022-10-31T06:15:08;11.50;99.90
20246;DHT22;10281;54.406;18.556;2022-10-31T06:17:34;11.60;99.90
20246;DHT22;10281;54.406;18.556;2022-10-31T06:20:02;11.60;99.90
20246;DHT22;10281;54.406;18.556;2022-10-31T06:22:29;11.60;99.90
20246;DHT22;10281;54.406;18.556;2022-10-31T06:24:55;11.60;99.90
20246;DHT22;10281;54.406;18.556;2022-10-31T06:27:22;11.60;99.90
20246;DHT22;10281;54.406;18.556;2022-10-31T06:29:49;11.70;99.90
20246;DHT22;10281;54.406;18.556;2022-10-31T06:32:16;11.70;99.90
20246;DHT22;10281;54.406;18.556;2022-10-31T06:34:43;11.70;99.90
20246;DHT22;10281;54.406;18.556;2022-10-31T06:37:11;11.80;99.90
20246;DHT22;10281;54.406;18.556;2022-10-31T06:39:38;11.80;99.90
20246;DHT22;10281;54.406;18.556;2022-10-31T06:42:05;11.80;99.90
20246;DHT22;10281;54.406;18.556;2022-10-31T06:44:32;11.80;99.90
20246;DHT22;10281;54.406;18.556;2022-10-31T06:46:59;11.80;99.90
20246;DHT22;10281;54.406;18.556;2022-10-31T06:49:25;11.90;99.90
20246;DHT22;10281;54.406;18.556;2022-10-31T06:51:52;11.90;99.90
20246;DHT22;10281;54.406;18.556;2022-10-31T06:54:19;11.90;99.90
20246;DHT22;10281;54.406;18.556;2022-10-31T06:56:46;11.90;99.90
20246;DHT22;10281;54.406;18.556;2022-10-31T06:59:14;11.90;99.90
20246;DHT22;10281;54.406;18.556;2022-10-31T07:01:41;12.00;99.90
20246;DHT22;10281;54.406;18.556;2022-10-31T07:04:09;12.00;99.90
20246;DHT22;10281;54.406;18.556;2022-10-31T07:06:36;12.00;99.90
20246;DHT22;10281;54.406;18.556;2022-10-31T07:09:03;12.00;99.90
20246;DHT22;10281;54.406;18.556;2022-10-31T07:11:30;12.10;99.90
20246;DHT22;10281;54.406;18.556;2022-10-31T07:13:56;12.10;99.90
20246;DHT22;10281;54.406;18.556;2022-10-31T07:16:23;12.20;99.90
20246;DHT22;10281;54.406;18.556;2022-10-31T07:18:50;12.20;99.90
20246;DHT22;10281;54.406;18.556;2022-10-31T07:21:16;12.30;99.90
20246;DHT22;10281;54.406;18.556;2022-10-31T07:23:43;12.30;99.90
20246;DHT22;10281;54.406;18.556;2022-10-31T07:26:10;12.30;99.90
20246;DHT22;10281;54.406;18.556;2022-10-31T07:28:36;12.40;99.90
20246;DHT22;10281;54.406;18.556;2022-10-31T07:31:03;12.40;99.90
20246;DHT22;10281;54.406;18.556;2022-10-31T07:33:30;12.50;99.90
20246;DHT22;10281;54.406;18.556;2022-10-31T07:35:56;12.50;99.90
20246;DHT22;10281;54.406;18.556;2022-10-31T07:38:23;12.60;99.90
20246;DHT22;10281;54.406;18.556;2022-10-31T07:40:51;12.60;99.90
20246;DHT22;10281;54.406;18.556;2022-10-31T07:43:19;12.70;99.90
20246;DHT22;10281;54.406;18.556;2022-10-31T07:45:53;12.70;99.90
20246;DHT22;10281;54.406;18.556;2022-10-31T07:48:21;12.80;99.90
20246;DHT22;10281;54.406;18.556;2022-10-31T07:50:47;12.80;99.90
20246;DHT22;10281;54.406;18.556;2022-10-31T07:53:14;12.90;99.90
20246;DHT22;10281;54.406;18.556;2022-10-31T07:55:42;12.90;99.90
20246;DHT22;10281;54.406;18.556;2022-10-31T07:58:13;13.00;99.90
20246;DHT22;10281;54.406;18.556;2022-10-31T08:00:43;13.10;99.90
20246;DHT22;10281;54.406;18.556;2022-10-31T08:03:12;13.10;99.90
20246;DHT22;10281;54.406;18.556;2022-10-31T08:05:39;13.20;99.90
20246;DHT22;10281;54.406;18.556;2022-10-31T08:08:07;13.20;99.90
20246;DHT22;10281;54.406;18.556;2022-10-31T08:10:34;13.30;99.90
20246;DHT22;10281;54.406;18.556;2022-10-31T08:13:04;13.40;99.90
20246;DHT22;10281;54.406;18.556;2022-10-31T08:15:32;13.40;99.90
20246;DHT22;10281;54.406;18.556;2022-10-31T08:18:01;13.50;99.90
20246;DHT22;10281;54.406;18.556;2022-10-31T08:20:28;13.60;99.90
20246;DHT22;10281;54.406;18.556;2022-10-31T08:22:59;13.60;99.90
20246;DHT22;10281;54.406;18.556;2022-10-31T08:25:28;13.70;99.90
20246;DHT22;10281;54.406;18.556;2022-10-31T08:27:55;13.70;99.90
20246;DHT22;10281;54.406;18.556;2022-10-31T08:30:24;13.80;99.90
20246;DHT22;10281;54.406;18.556;2022-10-31T08:35:43;13.80;99.90
20246;DHT22;10281;54.406;18.556;2022-10-31T08:38:11;13.90;99.90
20246;DHT22;10281;54.406;18.556;2022-10-31T08:40:39;14.00;99.90
20246;DHT22;10281;54.406;18.556;2022-10-31T08:43:10;14.00;99.90
20246;DHT22;10281;54.406;18.556;2022-10-31T08:45:39;14.10;99.90
20246;DHT22;10281;54.406;18.556;2022-10-31T08:48:11;14.10;99.90
20246;DHT22;10281;54.406;18.556;2022-10-31T08:50:39;14.10;99.90
20246;DHT22;10281;54.406;18.556;2022-10-31T08:53:12;14.10;99.90
20246;DHT22;10281;54.406;18.556;2022-10-31T08:55:40;14.20;99.90
20246;DHT22;10281;54.406;18.556;2022-10-31T08:58:10;14.20;99.90
20246;DHT22;10281;54.406;18.556;2022-10-31T09:00:38;14.20;99.90
20246;DHT22;10281;54.406;18.556;2022-10-31T09:03:08;14.20;99.90
20246;DHT22;10281;54.406;18.556;2022-10-31T09:05:35;14.30;99.90
20246;DHT22;10281;54.406;18.556;2022-10-31T09:08:03;14.30;99.90
20246;DHT22;10281;54.406;18.556;2022-10-31T09:10:31;14.30;99.90
20246;DHT22;10281;54.406;18.556;2022-10-31T09:13:00;14.30;99.90
20246;DHT22;10281;54.406;18.556;2022-10-31T09:15:27;14.40;99.90
20246;DHT22;10281;54.406;18.556;2022-10-31T09:17:55;14.40;99.90
20246;DHT22;10281;54.406;18.556;2022-10-31T09:20:22;14.40;99.90
20246;DHT22;10281;54.406;18.556;2022-10-31T09:22:56;14.50;99.90
20246;DHT22;10281;54.406;18.556;2022-10-31T09:25:23;14.50;99.90
20246;DHT22;10281;54.406;18.556;2022-10-31T09:27:51;14.60;99.90
20246;DHT22;10281;54.406;18.556;2022-10-31T09:30:17;14.60;99.90
20246;DHT22;10281;54.406;18.556;2022-10-31T09:32:44;14.70;99.90
20246;DHT22;10281;54.406;18.556;2022-10-31T09:35:10;14.80;99.90
20246;DHT22;10281;54.406;18.556;2022-10-31T09:37:37;14.80;99.90
20246;DHT22;10281;54.406;18.556;2022-10-31T09:40:04;14.80;99.90
20246;DHT22;10281;54.406;18.556;2022-10-31T09:45:39;14.80;99.90
20246;DHT22;10281;54.406;18.556;2022-10-31T09:49:24;14.80;99.90
20246;DHT22;10281;54.406;18.556;2022-10-31T09:51:00;14.90;99.90
20246;DHT22;10281;54.406;18.556;2022-10-31T09:56:18;15.00;99.90
20246;DHT22;10281;54.406;18.556;2022-10-31T09:58:50;15.00;99.90
20246;DHT22;10281;54.406;18.556;2022-10-31T10:01:48;15.00;99.90
20246;DHT22;10281;54.406;18.556;2022-10-31T10:04:41;15.10;99.90
20246;DHT22;10281;54.406;18.556;2022-10-31T10:07:41;15.10;99.90
20246;DHT22;10281;54.406;18.556;2022-10-31T10:10:27;15.20;99.90
20246;DHT22;10281;54.406;18.556;2022-10-31T10:13:15;15.10;99.90
20246;DHT22;10281;54.406;18.556;2022-10-31T10:15:49;15.20;99.90
20246;DHT22;10281;54.406;18.556;2022-10-31T10:18:32;15.20;99.90
20246;DHT22;10281;54.406;18.556;2022-10-31T10:21:13;15.10;99.90
20246;DHT22;10281;54.406;18.556;2022-10-31T10:23:53;15.20;99.90
20246;DHT22;10281;54.406;18.556;2022-10-31T10:26:22;15.20;99.90
20246;DHT22;10281;54.406;18.556;2022-10-31T10:28:56;15.20;99.90
20246;DHT22;10281;54.406;18.556;2022-10-31T10:31:27;15.30;99.90
20246;DHT22;10281;54.406;18.556;2022-10-31T10:34:11;15.30;99.90
20246;DHT22;10281;54.406;18.556;2022-10-31T10:36:42;15.30;99.90
20246;DHT22;10281;54.406;18.556;2022-10-31T10:39:22;15.30;99.90
20246;DHT22;10281;54.406;18.556;2022-10-31T10:41:50;15.30;99.90
20246;DHT22;10281;54.406;18.556;2022-10-31T10:44:23;15.30;99.90
20246;DHT22;10281;54.406;18.556;2022-10-31T10:47:06;15.30;99.90
20246;DHT22;10281;54.406;18.556;2022-10-31T10:49:49;15.30;99.90
20246;DHT22;10281;54.406;18.556;2022-10-31T10:52:28;15.30;99.90
20246;DHT22;10281;54.406;18.556;2022-10-31T10:55:13;15.20;99.90
20246;DHT22;10281;54.406;18.556;2022-10-31T10:57:58;15.20;99.90
20246;DHT22;10281;54.406;18.556;2022-10-31T11:00:36;15.20;99.90
20246;DHT22;10281;54.406;18.556;2022-10-31T11:03:03;15.10;99.90
20246;DHT22;10281;54.406;18.556;2022-10-31T11:05:38;15.20;99.90
20246;DHT22;10281;54.406;18.556;2022-10-31T11:08:06;15.10;99.90
20246;DHT22;10281;54.406;18.556;2022-10-31T11:10:34;15.10;99.90
20246;DHT22;10281;54.406;18.556;2022-10-31T11:13:19;15.20;99.90
20246;DHT22;10281;54.406;18.556;2022-10-31T11:15:57;15.20;99.90
20246;DHT22;10281;54.406;18.556;2022-10-31T11:18:26;15.20;99.90
20246;DHT22;10281;54.406;18.556;2022-10-31T11:20:55;15.20;99.90
20246;DHT22;10281;54.406;18.556;2022-10-31T11:23:24;15.10;99.90
20246;DHT22;10281;54.406;18.556;2022-10-31T11:25:57;15.20;99.90
20246;DHT22;10281;54.406;18.556;2022-10-31T11:28:24;15.20;99.90
20246;DHT22;10281;54.406;18.556;2022-10-31T11:30:55;15.10;99.90
20246;DHT22;10281;54.406;18.556;2022-10-31T11:33:30;15.20;99.90
20246;DHT22;10281;54.406;18.556;2022-10-31T11:35:57;15.20;99.90
20246;DHT22;10281;54.406;18.556;2022-10-31T11:38:29;15.20;99.90
20246;DHT22;10281;54.406;18.556;2022-10-31T11:41:00;15.20;99.90
20246;DHT22;10281;54.406;18.556;2022-10-31T11:43:27;15.10;99.90
20246;DHT22;10281;54.406;18.556;2022-10-31T11:45:54;15.10;99.90
20246;DHT22;10281;54.406;18.556;2022-10-31T11:48:23;15.10;99.90
20246;DHT22;10281;54.406;18.556;2022-10-31T11:50:54;15.10;99.90
20246;DHT22;10281;54.406;18.556;2022-10-31T11:53:28;15.10;99.90
20246;DHT22;10281;54.406;18.556;2022-10-31T11:56:16;15.00;99.90
20246;DHT22;10281;54.406;18.556;2022-10-31T11:58:42;15.00;99.90
20246;DHT22;10281;54.406;18.556;2022-10-31T12:04:00;14.90;99.90
20246;DHT22;10281;54.406;18.556;2022-10-31T12:06:34;14.90;99.90
20246;DHT22;10281;54.406;18.556;2022-10-31T12:09:00;14.90;99.90
20246;DHT22;10281;54.406;18.556;2022-10-31T12:11:41;15.00;99.90
20246;DHT22;10281;54.406;18.556;2022-10-31T12:17:08;15.00;99.90
20246;DHT22;10281;54.406;18.556;2022-10-31T12:19:41;15.00;99.90
20246;DHT22;10281;54.406;18.556;2022-10-31T12:22:13;14.90;99.90
20246;DHT22;10281;54.406;18.556;2022-10-31T12:24:54;14.80;99.90
20246;DHT22;10281;54.406;18.556;2022-10-31T12:27:25;14.80;99.90
20246;DHT22;10281;54.406;18.556;2022-10-31T12:29:58;14.80;99.90
20246;DHT22;10281;54.406;18.556;2022-10-31T12:33:02;14.80;99.90
20246;DHT22;10281;54.406;18.556;2022-10-31T12:41:24;14.80;99.90
20246;DHT22;10281;54.406;18.556;2022-10-31T12:44:05;14.80;99.90
20246;DHT22;10281;54.406;18.556;2022-10-31T12:46:53;14.80;99.90
20246;DHT22;10281;54.406;18.556;2022-10-31T12:49:46;14.80;99.90
20246;DHT22;10281;54.406;18.556;2022-10-31T12:52:25;14.80;99.90
20246;DHT22;10281;54.406;18.556;2022-10-31T12:55:03;14.70;99.90
20246;DHT22;10281;54.406;18.556;2022-10-31T12:57:36;14.70;99.90
20246;DHT22;10281;54.406;18.556;2022-10-31T13:00:21;14.80;99.90
20246;DHT22;10281;54.406;18.556;2022-10-31T13:02:57;14.70;99.90
20246;DHT22;10281;54.406;18.556;2022-10-31T13:05:44;14.70;99.90
20246;DHT22;10281;54.406;18.556;2022-10-31T13:08:20;14.70;99.90
20246;DHT22;10281;54.406;18.556;2022-10-31T13:10:52;14.60;99.90
20246;DHT22;10281;54.406;18.556;2022-10-31T13:13:38;14.50;99.90
20246;DHT22;10281;54.406;18.556;2022-10-31T13:16:13;14.60;99.90
20246;DHT22;10281;54.406;18.556;2022-10-31T13:18:44;14.60;99.90
20246;DHT22;10281;54.406;18.556;2022-10-31T13:21:21;14.50;99.90
20246;DHT22;10281;54.406;18.556;2022-10-31T13:23:50;14.50;99.90
20246;DHT22;10281;54.406;18.556;2022-10-31T13:29:00;14.40;99.90
20246;DHT22;10281;54.406;18.556;2022-10-31T13:31:26;14.40;99.90
20246;DHT22;10281;54.406;18.556;2022-10-31T13:33:58;14.30;99.90
20246;DHT22;10281;54.406;18.556;2022-10-31T13:36:51;14.30;99.90
20246;DHT22;10281;54.406;18.556;2022-10-31T13:39:41;14.20;99.90
20246;DHT22;10281;54.406;18.556;2022-10-31T13:44:44;14.20;99.90
20246;DHT22;10281;54.406;18.556;2022-10-31T13:47:26;14.20;99.90
20246;DHT22;10281;54.406;18.556;2022-10-31T13:52:42;14.20;99.90
20246;DHT22;10281;54.406;18.556;2022-10-31T13:57:44;14.20;99.90
20246;DHT22;10281;54.406;18.556;2022-10-31T14:00:26;14.20;99.90
20246;DHT22;10281;54.406;18.556;2022-10-31T14:02:55;14.20;99.90
20246;DHT22;10281;54.406;18.556;2022-10-31T14:05:26;14.20;99.90
20246;DHT22;10281;54.406;18.556;2022-10-31T14:07:54;14.20;99.90
20246;DHT22;10281;54.406;18.556;2022-10-31T14:10:28;14.20;99.90
20246;DHT22;10281;54.406;18.556;2022-10-31T14:13:05;14.20;99.90
20246;DHT22;10281;54.406;18.556;2022-10-31T14:15:32;14.20;99.90
20246;DHT22;10281;54.406;18.556;2022-10-31T14:18:02;14.20;99.90
20246;DHT22;10281;54.406;18.556;2022-10-31T14:20:34;14.20;99.90
20246;DHT22;10281;54.406;18.556;2022-10-31T14:23:41;14.20;99.90
20246;DHT22;10281;54.406;18.556;2022-10-31T14:26:05;14.20;99.90
20246;DHT22;10281;54.406;18.556;2022-10-31T14:28:38;14.20;99.90
20246;DHT22;10281;54.406;18.556;2022-10-31T14:31:24;14.20;99.90
20246;DHT22;10281;54.406;18.556;2022-10-31T14:33:41;14.20;99.90
20246;DHT22;10281;54.406;18.556;2022-10-31T14:36:23;14.20;99.90
20246;DHT22;10281;54.406;18.556;2022-10-31T14:38:57;14.20;99.90
20246;DHT22;10281;54.406;18.556;2022-10-31T14:41:44;14.20;99.90
20246;DHT22;10281;54.406;18.556;2022-10-31T14:44:17;14.20;99.90
20246;DHT22;10281;54.406;18.556;2022-10-31T14:46:56;14.30;99.90
20246;DHT22;10281;54.406;18.556;2022-10-31T14:49:34;14.20;99.90
20246;DHT22;10281;54.406;18.556;2022-10-31T14:51:56;14.20;99.90
20246;DHT22;10281;54.406;18.556;2022-10-31T14:54:29;14.20;99.90
20246;DHT22;10281;54.406;18.556;2022-10-31T14:57:00;14.30;99.90
20246;DHT22;10281;54.406;18.556;2022-10-31T14:59:30;14.20;99.90
20246;DHT22;10281;54.406;18.556;2022-10-31T15:02:07;14.20;99.90
20246;DHT22;10281;54.406;18.556;2022-10-31T15:04:31;14.20;99.90
20246;DHT22;10281;54.406;18.556;2022-10-31T15:07:10;14.20;99.90
20246;DHT22;10281;54.406;18.556;2022-10-31T15:09:36;14.20;99.90
20246;DHT22;10281;54.406;18.556;2022-10-31T15:12:32;14.10;99.90
20246;DHT22;10281;54.406;18.556;2022-10-31T15:15:18;14.20;99.90
20246;DHT22;10281;54.406;18.556;2022-10-31T15:17:45;14.20;99.90
20246;DHT22;10281;54.406;18.556;2022-10-31T15:20:20;14.10;99.90
20246;DHT22;10281;54.406;18.556;2022-10-31T15:22:48;14.10;99.90
20246;DHT22;10281;54.406;18.556;2022-10-31T15:25:20;14.20;99.90
20246;DHT22;10281;54.406;18.556;2022-10-31T15:27:48;14.10;99.90
20246;DHT22;10281;54.406;18.556;2022-10-31T15:30:21;14.10;99.90
20246;DHT22;10281;54.406;18.556;2022-10-31T15:32:49;14.10;99.90
20246;DHT22;10281;54.406;18.556;2022-10-31T15:35:28;14.10;99.90
20246;DHT22;10281;54.406;18.556;2022-10-31T15:37:57;14.10;99.90
20246;DHT22;10281;54.406;18.556;2022-10-31T15:40:25;14.10;99.90
20246;DHT22;10281;54.406;18.556;2022-10-31T15:42:57;14.00;99.90
20246;DHT22;10281;54.406;18.556;2022-10-31T15:45:26;14.10;99.90
20246;DHT22;10281;54.406;18.556;2022-10-31T15:47:57;14.00;99.90
20246;DHT22;10281;54.406;18.556;2022-10-31T15:50:30;14.00;99.90
20246;DHT22;10281;54.406;18.556;2022-10-31T15:52:56;14.00;99.90
20246;DHT22;10281;54.406;18.556;2022-10-31T15:55:26;14.00;99.90
20246;DHT22;10281;54.406;18.556;2022-10-31T15:57:59;14.00;99.90
20246;DHT22;10281;54.406;18.556;2022-10-31T16:00:28;14.00;99.90
20246;DHT22;10281;54.406;18.556;2022-10-31T16:03:03;14.00;99.90
20246;DHT22;10281;54.406;18.556;2022-10-31T16:05:37;14.00;99.90
20246;DHT22;10281;54.406;18.556;2022-10-31T16:08:20;14.00;99.90
20246;DHT22;10281;54.406;18.556;2022-10-31T16:10:34;14.00;99.90
20246;DHT22;10281;54.406;18.556;2022-10-31T16:13:01;14.00;99.90
20246;DHT22;10281;54.406;18.556;2022-10-31T16:15:28;14.00;99.90
20246;DHT22;10281;54.406;18.556;2022-10-31T16:17:55;14.00;99.90
20246;DHT22;10281;54.406;18.556;2022-10-31T16:20:26;14.00;99.90
20246;DHT22;10281;54.406;18.556;2022-10-31T16:22:54;14.00;99.90
20246;DHT22;10281;54.406;18.556;2022-10-31T16:25:27;14.00;99.90